Time;durP1;ratioP1;P1;durP2;ratioP2;P2;SDS_P1;SDS_P2;PMS_P1;PMS_P2;Temp;Humidity;BMP_temperature;BMP_pressure;BME280_temperature;BME280_humidity;BME280_pressure;Samples;Min_cycle;Max_cycle;Signal;HPM_P1;HPM_P2
2024/01/13 00:01:08;;;;;;;21.40;14.23;;;;;;;-2.39;53.00;95332.78;5042985;28;20308;-68
2024/01/13 00:03:33;;;;;;;21.47;14.10;;;;;;;-2.27;53.24;95321.97;5032548;28;20218;-67
2024/01/13 00:05:59;;;;;;;17.97;12.83;;;;;;;-2.29;52.57;95326.34;5036085;28;20269;-69
2024/01/13 00:08:24;;;;;;;20.50;13.93;;;;;;;-2.30;52.14;95324.69;5032286;28;20182;-67
2024/01/13 00:10:50;;;;;;;20.50;13.83;;;;;;;-2.36;52.00;95316.38;5033075;28;20174;-69
2024/01/13 00:13:15;;;;;;;19.40;12.83;;;;;;;-2.45;52.52;95309.88;5032575;28;20222;-69
2024/01/13 00:15:41;;;;;;;19.13;13.00;;;;;;;-2.66;52.77;95309.06;5032664;28;20301;-68
2024/01/13 00:18:06;;;;;;;20.40;12.47;;;;;;;-2.60;52.79;95302.81;5049009;28;20268;-69
2024/01/13 00:20:32;;;;;;;19.13;13.23;;;;;;;-2.60;52.53;95295.09;5031528;28;20233;-69
2024/01/13 00:22:57;;;;;;;19.00;12.90;;;;;;;-2.57;52.11;95300.09;5031228;28;20186;-69
2024/01/13 00:25:22;;;;;;;17.97;12.27;;;;;;;-2.46;51.92;95305.63;5029043;28;20249;-69
2024/01/13 00:27:48;;;;;;;19.13;12.37;;;;;;;-2.58;51.77;95307.00;5031881;28;20233;-68
2024/01/13 00:30:15;;;;;;;19.40;13.50;;;;;;;-2.52;51.70;95317.03;5037186;28;20247;-68
2024/01/13 00:32:40;;;;;;;19.33;13.27;;;;;;;-2.51;51.37;95310.16;5030406;28;20214;-68
2024/01/13 00:35:06;;;;;;;16.90;11.57;;;;;;;-2.42;51.57;95317.47;5032435;28;20190;-68
2024/01/13 00:37:31;;;;;;;17.70;11.70;;;;;;;-2.59;51.56;95304.47;5032187;28;20228;-68
2024/01/13 00:39:57;;;;;;;17.23;11.83;;;;;;;-2.73;51.79;95303.31;5032629;28;20316;-68
2024/01/13 00:42:22;;;;;;;17.13;10.97;;;;;;;-2.59;51.90;95319.91;5029076;28;20229;-68
2024/01/13 00:44:47;;;;;;;20.30;12.97;;;;;;;-2.53;51.30;95299.91;5033282;28;20248;-68
2024/01/13 00:47:13;;;;;;;19.53;12.00;;;;;;;-2.39;51.31;95298.47;5031899;28;20225;-68
2024/01/13 00:49:38;;;;;;;16.57;12.53;;;;;;;-2.49;51.56;95304.00;5029589;28;20270;-69
2024/01/13 00:52:04;;;;;;;18.63;13.13;;;;;;;-2.48;51.61;95302.28;5025904;28;20222;-67
2024/01/13 00:54:30;;;;;;;18.50;12.93;;;;;;;-2.49;51.18;95288.56;5031829;28;20236;-67
2024/01/13 00:56:55;;;;;;;19.10;12.57;;;;;;;-2.36;51.13;95299.16;5031710;28;20313;-67
2024/01/13 00:59:20;;;;;;;17.27;10.50;;;;;;;-2.35;51.53;95300.00;5028734;28;20207;-67
2024/01/13 01:01:46;;;;;;;18.20;13.07;;;;;;;-2.30;51.42;95303.22;5028603;28;20178;-67
2024/01/13 01:04:11;;;;;;;18.10;10.47;;;;;;;-2.25;50.75;95296.13;5028570;28;20226;-68
2024/01/13 01:06:37;;;;;;;16.60;10.00;;;;;;;-2.37;51.69;95294.94;5031886;28;20226;-67
2024/01/13 01:09:02;;;;;;;17.77;10.23;;;;;;;-2.27;51.41;95288.47;5048119;28;20310;-69
2024/01/13 01:11:28;;;;;;;17.10;10.90;;;;;;;-2.12;51.37;95296.41;5030706;28;20198;-69
2024/01/13 01:13:53;;;;;;;17.17;11.63;;;;;;;-2.16;50.94;95279.44;5027057;28;20228;-69
2024/01/13 01:16:19;;;;;;;18.03;12.90;;;;;;;-2.31;51.49;95284.34;5046863;28;20236;-67
2024/01/13 01:18:44;;;;;;;18.63;10.97;;;;;;;-2.20;51.23;95277.88;5047854;28;20317;-67
2024/01/13 01:21:11;;;;;;;19.17;10.80;;;;;;;-2.17;51.27;95283.72;5031498;28;20245;-67
2024/01/13 01:23:36;;;;;;;19.23;11.73;;;;;;;-2.25;51.41;95266.03;5030005;28;20226;-67
2024/01/13 01:26:01;;;;;;;20.60;11.90;;;;;;;-2.11;51.02;95262.00;5031726;28;20190;-69
2024/01/13 01:28:27;;;;;;;18.83;11.50;;;;;;;-2.18;51.35;95263.22;5031591;28;20224;-68
2024/01/13 01:30:52;;;;;;;17.00;10.93;;;;;;;-2.04;51.28;95273.72;5031242;28;20225;-68
2024/01/13 01:33:18;;;;;;;16.80;11.13;;;;;;;-2.07;50.75;95251.50;5031390;28;20225;-68
2024/01/13 01:35:43;;;;;;;18.00;11.13;;;;;;;-2.20;51.22;95257.28;5029804;28;20317;-69
2024/01/13 01:38:08;;;;;;;18.53;12.17;;;;;;;-2.22;51.50;95258.19;5048078;28;20260;-68
2024/01/13 01:40:35;;;;;;;19.77;11.33;;;;;;;-2.13;51.37;95264.66;5031536;28;20257;-71
2024/01/13 01:43:00;;;;;;;21.03;12.63;;;;;;;-2.23;51.63;95256.50;5030007;28;20219;-71
2024/01/13 01:45:26;;;;;;;17.10;11.53;;;;;;;-2.19;51.50;95243.50;5031441;28;20363;-71
2024/01/13 01:47:53;;;;;;;21.03;13.40;;;;;;;-2.34;51.73;95257.91;5029873;28;20333;-71
2024/01/13 01:50:19;;;;;;;21.13;12.70;;;;;;;-2.24;51.72;95261.75;5047703;28;20293;-71
2024/01/13 01:52:45;;;;;;;20.10;12.27;;;;;;;-2.35;51.99;95266.50;5050116;28;20265;-71
2024/01/13 01:55:10;;;;;;;20.07;11.67;;;;;;;-2.16;51.54;95274.28;5033610;28;20229;-70
2024/01/13 01:57:40;;;;;;;21.53;12.77;;;;;;;-2.22;51.46;95271.09;5034571;28;20249;-70
2024/01/13 02:00:08;;;;;;;21.53;12.30;;;;;;;-2.33;51.66;95254.41;5047063;28;20317;-75
2024/01/13 02:02:35;;;;;;;19.37;12.67;;;;;;;-2.31;51.77;95270.63;5031282;28;20230;-74
2024/01/13 02:05:02;;;;;;;19.13;11.83;;;;;;;-2.23;51.59;95269.38;5028086;28;20209;-74
2024/01/13 02:07:27;;;;;;;20.33;13.97;;;;;;;-2.17;51.65;95270.84;5047988;28;20230;-74
2024/01/13 02:09:53;;;;;;;19.53;11.53;;;;;;;-2.14;51.79;95262.97;5031202;28;20218;-74
2024/01/13 02:12:19;;;;;;;21.93;12.70;;;;;;;-2.19;51.34;95254.66;5027636;28;20230;-73
2024/01/13 02:14:44;;;;;;;20.40;12.43;;;;;;;-2.20;52.09;95262.44;5028737;28;20257;-74
2024/01/13 02:17:10;;;;;;;19.97;13.67;;;;;;;-2.27;52.42;95265.28;5029076;28;20194;-73
2024/01/13 02:19:36;;;;;;;18.67;11.73;;;;;;;-2.19;52.23;95262.38;5049898;28;20237;-73
2024/01/13 02:22:02;;;;;;;21.27;13.17;;;;;;;-2.28;52.08;95261.03;5042849;28;20218;-74
2024/01/13 02:24:27;;;;;;;20.17;12.60;;;;;;;-2.33;52.54;95257.00;5033770;28;20225;-74
2024/01/13 02:26:53;;;;;;;19.97;12.53;;;;;;;-2.44;52.57;95253.16;5034358;28;20218;-73
2024/01/13 02:29:18;;;;;;;20.10;13.53;;;;;;;-2.44;52.68;95242.00;5033682;28;20186;-72
2024/01/13 02:31:43;;;;;;;22.37;14.40;;;;;;;-2.52;53.35;95244.09;5034508;28;20186;-72
2024/01/13 02:34:09;;;;;;;20.70;14.60;;;;;;;-2.37;53.35;95235.69;5033676;28;20230;-72
2024/01/13 02:36:34;;;;;;;20.87;14.73;;;;;;;-2.32;53.27;95245.81;5034591;28;20217;-72
2024/01/13 02:39:00;;;;;;;24.47;13.33;;;;;;;-2.20;53.04;95246.97;5050655;28;20230;-72
2024/01/13 02:41:25;;;;;;;19.03;13.00;;;;;;;-2.33;53.25;95249.25;5033835;28;20188;-72
2024/01/13 02:43:51;;;;;;;21.30;14.90;;;;;;;-2.37;53.62;95240.84;5034745;28;20197;-72
2024/01/13 02:46:17;;;;;;;21.73;13.40;;;;;;;-2.18;53.24;95224.56;5038857;28;20235;-72
2024/01/13 02:48:52;;;;;;;22.67;14.83;;;;;;;-2.09;53.00;95243.00;5047697;28;20218;-72
2024/01/13 02:51:18;;;;;;;21.90;13.67;;;;;;;-2.04;52.73;95232.50;5030868;28;20275;-72
2024/01/13 02:53:44;;;;;;;22.67;14.43;;;;;;;-1.98;52.70;95239.09;5033211;28;20229;-72
2024/01/13 02:56:10;;;;;;;20.83;13.17;;;;;;;-2.05;52.75;95239.38;5033611;28;20204;-73
2024/01/13 02:58:35;;;;;;;19.57;12.47;;;;;;;-2.02;52.26;95241.00;5034951;28;20288;-73
2024/01/13 03:01:06;;;;;;;20.70;13.30;;;;;;;-1.94;52.24;95236.31;5033535;28;20250;-74
2024/01/13 03:03:33;;;;;;;22.90;14.73;;;;;;;-1.92;52.25;95237.09;5043877;28;20217;-72
2024/01/13 03:05:58;;;;;;;19.90;13.30;;;;;;;-1.80;52.31;95245.97;5033176;28;20226;-72
2024/01/13 03:08:24;;;;;;;23.07;15.00;;;;;;;-2.05;52.80;95243.72;5033691;28;20186;-73
2024/01/13 03:10:50;;;;;;;20.47;13.37;;;;;;;-2.14;52.59;95259.56;5033559;28;20606;-73
2024/01/13 03:13:15;;;;;;;26.23;14.37;;;;;;;-2.02;52.77;95259.03;5033424;28;20242;-73
2024/01/13 03:15:41;;;;;;;21.47;13.47;;;;;;;-2.00;53.23;95270.09;5029088;28;20221;-73
2024/01/13 03:18:06;;;;;;;20.87;13.03;;;;;;;-1.81;52.94;95270.94;5042684;28;20231;-73
2024/01/13 03:20:32;;;;;;;21.60;13.77;;;;;;;-1.83;53.13;95272.72;5030802;28;20246;-71
2024/01/13 03:22:57;;;;;;;25.67;16.67;;;;;;;-1.74;53.24;95270.63;5033990;28;20182;-72
2024/01/13 03:25:23;;;;;;;24.27;15.97;;;;;;;-1.86;53.09;95267.72;5033038;28;20225;-71
2024/01/13 03:27:48;;;;;;;21.20;14.13;;;;;;;-1.75;53.28;95276.72;5032883;28;20302;-72
2024/01/13 03:30:14;;;;;;;21.83;15.87;;;;;;;-1.82;52.24;95281.28;5027815;28;20222;-73
2024/01/13 03:32:40;;;;;;;22.27;13.97;;;;;;;-2.02;52.96;95277.06;5033240;28;20222;-73
2024/01/13 03:35:05;;;;;;;20.67;13.73;;;;;;;-1.98;52.99;95278.59;5034506;28;20219;-72
2024/01/13 03:37:31;;;;;;;24.90;13.67;;;;;;;-2.18;53.77;95276.09;5033032;28;20217;-74
2024/01/13 03:39:56;;;;;;;23.60;13.80;;;;;;;-2.07;53.86;95279.84;5042687;28;20283;-72
2024/01/13 03:42:22;;;;;;;20.43;14.17;;;;;;;-2.02;53.07;95277.91;5043027;28;20218;-72
2024/01/13 03:44:47;;;;;;;22.73;15.13;;;;;;;-1.97;52.73;95261.41;5045362;28;20221;-72
2024/01/13 03:47:13;;;;;;;20.73;13.83;;;;;;;-2.11;53.05;95268.03;5033357;28;20272;-73
2024/01/13 03:49:39;;;;;;;23.03;15.47;;;;;;;-2.12;52.42;95262.94;5053052;28;20208;-72
2024/01/13 03:52:04;;;;;;;23.77;16.43;;;;;;;-2.25;52.57;95265.22;5037002;28;20229;-72
2024/01/13 03:54:30;;;;;;;22.47;14.87;;;;;;;-2.02;51.93;95262.44;5014005;28;20233;-72
2024/01/13 03:56:55;;;;;;;20.10;14.73;;;;;;;-2.11;52.14;95252.56;5036814;28;20237;-72
2024/01/13 03:59:21;;;;;;;22.20;15.50;;;;;;;-2.09;51.73;95257.63;5067414;28;20206;-72
2024/01/13 04:01:46;;;;;;;21.27;13.70;;;;;;;-2.08;51.88;95267.06;5050369;28;20297;-72
2024/01/13 04:04:11;;;;;;;21.93;15.90;;;;;;;-2.03;51.61;95255.63;5032137;28;20309;-71
2024/01/13 04:06:40;;;;;;;22.23;15.23;;;;;;;-2.03;51.48;95259.94;5032373;28;20218;-72
2024/01/13 04:09:07;;;;;;;24.40;15.63;;;;;;;-2.02;51.59;95256.44;5039069;28;20226;-72
2024/01/13 04:11:33;;;;;;;25.17;16.17;;;;;;;-1.95;51.57;95257.00;5030091;28;20218;-72
2024/01/13 04:13:58;;;;;;;25.00;16.77;;;;;;;-2.27;52.45;95255.00;5032619;28;20248;-72
2024/01/13 04:16:24;;;;;;;23.87;16.63;;;;;;;-2.11;52.39;95267.16;5031705;28;20233;-72
2024/01/13 04:18:49;;;;;;;24.83;16.83;;;;;;;-2.16;52.22;95267.38;5049278;28;20230;-72
2024/01/13 04:21:15;;;;;;;21.50;15.33;;;;;;;-2.13;52.52;95264.66;5032577;28;20226;-72
2024/01/13 04:23:40;;;;;;;25.93;17.10;;;;;;;-2.08;52.52;95274.78;5032378;28;20249;-72
2024/01/13 04:26:06;;;;;;;22.03;15.30;;;;;;;-2.01;52.37;95276.16;5030226;28;20190;-73
2024/01/13 04:28:32;;;;;;;27.43;17.03;;;;;;;-2.10;52.34;95287.72;5032433;28;20294;-72
2024/01/13 04:30:57;;;;;;;27.80;17.03;;;;;;;-2.14;52.82;95287.91;5049192;28;20363;-72
2024/01/13 04:33:23;;;;;;;23.87;15.50;;;;;;;-2.22;51.92;95288.25;5048822;28;20224;-73
2024/01/13 04:35:48;;;;;;;22.30;15.20;;;;;;;-2.23;52.20;95300.31;5031952;28;20278;-74
2024/01/13 04:38:13;;;;;;;22.43;15.17;;;;;;;-2.14;51.78;95303.38;5032237;28;20206;-73
2024/01/13 04:40:39;;;;;;;21.07;14.70;;;;;;;-2.24;51.15;95306.38;5048655;28;20182;-73
2024/01/13 04:43:04;;;;;;;24.40;14.93;;;;;;;-2.25;50.83;95304.69;5032222;28;20221;-73
2024/01/13 04:45:30;;;;;;;19.77;14.00;;;;;;;-2.32;51.15;95294.75;5032466;28;20222;-74
2024/01/13 04:47:57;;;;;;;20.10;13.97;;;;;;;-2.35;50.85;95298.28;5031239;28;20222;-74
2024/01/13 04:50:22;;;;;;;19.73;13.80;;;;;;;-2.27;50.37;95293.63;5030616;28;20209;-73
2024/01/13 04:52:48;;;;;;;20.20;14.17;;;;;;;-2.31;50.70;95294.66;5029305;28;20178;-73
2024/01/13 04:55:13;;;;;;;20.27;12.93;;;;;;;-2.30;50.75;95306.66;5030966;28;20233;-73
2024/01/13 04:57:39;;;;;;;21.07;13.53;;;;;;;-2.28;50.42;95304.81;5043847;28;20242;-72
2024/01/13 05:00:06;;;;;;;18.83;12.77;;;;;;;-2.24;50.28;95298.63;5031897;28;20236;-72
2024/01/13 05:02:31;;;;;;;17.07;12.50;;;;;;;-2.46;50.57;95303.03;5047590;28;20276;-72
2024/01/13 05:04:57;;;;;;;18.97;13.43;;;;;;;-2.40;50.17;95301.97;5030865;28;20187;-72
2024/01/13 05:07:22;;;;;;;21.07;13.63;;;;;;;-2.47;50.67;95298.81;5031561;28;20233;-72
2024/01/13 05:09:51;;;;;;;20.07;13.30;;;;;;;-2.29;50.24;95294.59;5032029;28;20290;-72
2024/01/13 05:12:17;;;;;;;18.33;13.50;;;;;;;-2.41;50.73;95300.28;5023037;28;20226;-72
2024/01/13 05:14:44;;;;;;;21.40;13.33;;;;;;;-2.39;50.51;95289.00;5030202;28;20292;-71
2024/01/13 05:17:09;;;;;;;17.83;12.83;;;;;;;-2.34;50.12;95289.63;5022395;28;20285;-71
2024/01/13 05:19:34;;;;;;;20.93;13.87;;;;;;;-2.38;50.30;95276.97;5027700;28;20305;-70
2024/01/13 05:22:00;;;;;;;19.50;12.67;;;;;;;-2.38;50.38;95274.38;5048572;28;20221;-70
2024/01/13 05:24:25;;;;;;;19.97;13.03;;;;;;;-2.59;50.28;95271.00;5039960;28;20280;-70
2024/01/13 05:26:51;;;;;;;19.87;12.93;;;;;;;-2.52;50.57;95259.53;5045706;28;20226;-70
2024/01/13 05:29:16;;;;;;;17.90;12.73;;;;;;;-2.34;50.28;95263.88;5047936;28;20257;-71
2024/01/13 05:31:42;;;;;;;18.40;12.80;;;;;;;-2.40;50.19;95261.59;5030472;28;20250;-71
2024/01/13 05:34:07;;;;;;;19.13;12.63;;;;;;;-2.44;50.05;95254.88;5031239;28;20237;-70
2024/01/13 05:36:33;;;;;;;17.03;12.73;;;;;;;-2.38;50.24;95256.34;5031584;28;20279;-70
2024/01/13 05:38:58;;;;;;;17.13;12.10;;;;;;;-2.55;49.93;95264.84;5046873;28;20310;-69
2024/01/13 05:41:23;;;;;;;19.17;12.93;;;;;;;-2.59;50.22;95269.28;5031124;28;20277;-71
2024/01/13 05:43:49;;;;;;;20.97;13.77;;;;;;;-2.64;50.83;95276.38;5031168;28;20407;-70
2024/01/13 05:46:14;;;;;;;17.47;12.30;;;;;;;-2.41;50.40;95280.50;5028179;28;20222;-70
2024/01/13 05:48:40;;;;;;;18.97;13.47;;;;;;;-2.40;50.52;95282.19;5023632;28;20225;-70
2024/01/13 05:51:07;;;;;;;18.50;13.43;;;;;;;-2.32;50.11;95284.44;5044080;28;20248;-71
2024/01/13 05:53:33;;;;;;;17.87;12.77;;;;;;;-2.45;50.39;95284.13;5034555;28;20226;-71
2024/01/13 05:55:58;;;;;;;20.17;13.53;;;;;;;-2.40;50.50;95287.34;5034155;28;20233;-70
2024/01/13 05:58:24;;;;;;;21.67;13.43;;;;;;;-2.27;50.41;95296.22;5069171;28;20225;-69
2024/01/13 06:00:49;;;;;;;19.40;12.93;;;;;;;-2.28;50.25;95291.09;5039552;28;20405;-70
2024/01/13 06:03:15;;;;;;;17.27;12.73;;;;;;;-2.28;49.90;95289.34;5034355;28;20228;-70
2024/01/13 06:05:40;;;;;;;18.57;13.27;;;;;;;-2.44;50.46;95276.31;5035142;28;20285;-70
2024/01/13 06:08:05;;;;;;;20.57;12.60;;;;;;;-2.43;50.30;95279.75;5046210;28;20182;-70
2024/01/13 06:10:31;;;;;;;17.03;11.20;;;;;;;-2.40;50.79;95282.19;5054031;28;20217;-69
2024/01/13 06:12:59;;;;;;;17.80;13.03;;;;;;;-2.50;50.39;95275.78;5040498;28;20218;-70
2024/01/13 06:15:26;;;;;;;16.63;12.03;;;;;;;-2.43;50.35;95284.91;5032485;28;20222;-69
2024/01/13 06:17:52;;;;;;;17.77;12.37;;;;;;;-2.48;50.45;95277.38;5034064;28;20217;-70
2024/01/13 06:20:17;;;;;;;18.63;12.77;;;;;;;-2.38;50.26;95289.84;5031536;28;20263;-72
2024/01/13 06:22:43;;;;;;;16.00;11.63;;;;;;;-2.34;50.24;95288.81;5035303;28;20198;-71
2024/01/13 06:25:08;;;;;;;18.33;12.37;;;;;;;-2.49;50.33;95285.97;5033371;28;20279;-71
2024/01/13 06:27:34;;;;;;;17.83;11.17;;;;;;;-2.33;50.37;95285.31;5033270;28;20275;-71
2024/01/13 06:29:59;;;;;;;20.63;12.43;;;;;;;-2.39;50.56;95278.69;5034432;28;20286;-72
2024/01/13 06:32:25;;;;;;;17.93;12.53;;;;;;;-2.44;50.84;95275.50;5031201;28;20182;-72
2024/01/13 06:34:50;;;;;;;18.13;12.83;;;;;;;-2.51;51.26;95274.09;5034768;28;20194;-72
2024/01/13 06:37:15;;;;;;;18.23;13.80;;;;;;;-2.50;50.83;95268.88;5048656;28;20292;-71
2024/01/13 06:39:41;;;;;;;18.73;12.23;;;;;;;-2.37;50.51;95276.91;5034242;28;20226;-73
2024/01/13 06:42:08;;;;;;;16.77;12.37;;;;;;;-2.40;50.91;95271.91;5056123;28;20308;-72
2024/01/13 06:44:33;;;;;;;18.70;12.53;;;;;;;-2.29;50.32;95269.66;5051576;28;20312;-71
2024/01/13 06:47:01;;;;;;;18.43;12.73;;;;;;;-2.48;50.74;95277.38;5054584;28;20257;-71
2024/01/13 06:49:26;;;;;;;18.33;12.43;;;;;;;-2.44;50.95;95296.91;5033723;28;20245;-71
2024/01/13 06:51:51;;;;;;;17.43;12.17;;;;;;;-2.28;50.56;95298.84;5033965;28;20300;-72
2024/01/13 06:54:17;;;;;;;18.00;12.20;;;;;;;-2.26;50.27;95291.88;5050006;28;20226;-72
2024/01/13 06:56:42;;;;;;;16.73;12.20;;;;;;;-2.17;50.52;95295.78;5033785;28;20222;-72
2024/01/13 06:59:08;;;;;;;16.90;10.63;;;;;;;-2.11;50.03;95290.34;5033664;28;20229;-71
2024/01/13 07:01:34;;;;;;;20.20;12.20;;;;;;;-2.41;50.39;95316.56;5032029;28;20283;-71
2024/01/13 07:03:59;;;;;;;19.23;11.23;;;;;;;-2.30;49.87;95304.06;5029593;28;20221;-71
2024/01/13 07:06:24;;;;;;;15.47;10.73;;;;;;;-2.37;50.22;95300.09;5040674;28;20224;-71
2024/01/13 07:08:50;;;;;;;14.97;9.83;;;;;;;-2.10;50.04;95300.59;5045293;28;20254;-73
2024/01/13 07:11:15;;;;;;;16.23;11.10;;;;;;;-1.98;49.50;95319.81;5030331;28;20197;-76
2024/01/13 07:13:42;;;;;;;16.80;10.63;;;;;;;-1.88;49.28;95325.41;5051100;28;20197;-75
2024/01/13 07:16:08;;;;;;;17.97;11.10;;;;;;;-1.81;49.42;95307.00;5050521;28;20229;-77
2024/01/13 07:18:34;;;;;;;17.40;12.17;;;;;;;-1.93;49.11;95323.03;5050821;28;20234;-71
2024/01/13 07:20:59;;;;;;;16.70;10.93;;;;;;;-1.93;49.38;95302.41;5026764;28;20226;-74
2024/01/13 07:23:25;;;;;;;18.87;12.07;;;;;;;-2.02;49.67;95313.16;5034269;28;20348;-75
2024/01/13 07:25:50;;;;;;;17.60;11.70;;;;;;;-2.00;50.22;95322.47;5025269;28;20190;-76
2024/01/13 07:28:16;;;;;;;19.30;12.30;;;;;;;-1.90;50.04;95332.34;5042481;28;20234;-76
2024/01/13 07:30:41;;;;;;;17.97;12.00;;;;;;;-1.84;50.21;95338.09;5038746;28;20218;-77
2024/01/13 07:33:06;;;;;;;17.07;12.17;;;;;;;-2.01;50.42;95330.25;5029518;28;20210;-78
2024/01/13 07:35:34;;;;;;;20.00;13.17;;;;;;;-1.99;50.22;95333.63;5029211;28;20222;-75
2024/01/13 07:38:00;;;;;;;20.33;12.70;;;;;;;-1.94;49.88;95323.94;5032043;28;20197;-74
2024/01/13 07:40:26;;;;;;;18.47;12.43;;;;;;;-1.99;50.32;95323.31;5029295;28;20291;-75
2024/01/13 07:42:52;;;;;;;18.27;12.60;;;;;;;-1.96;50.27;95318.00;5030597;28;20249;-74
2024/01/13 07:45:17;;;;;;;20.17;12.30;;;;;;;-2.04;50.70;95315.78;5029175;28;20229;-74
2024/01/13 07:47:43;;;;;;;19.27;12.37;;;;;;;-1.95;50.86;95318.84;5029745;28;20638;-75
2024/01/13 07:50:09;;;;;;;21.80;12.70;;;;;;;-2.01;51.09;95325.09;5028879;28;20222;-74
2024/01/13 07:52:34;;;;;;;21.23;12.67;;;;;;;-1.90;50.82;95329.78;5022632;28;20234;-75
2024/01/13 07:55:00;;;;;;;21.47;13.60;;;;;;;-2.01;50.98;95318.22;5030332;28;20225;-73
2024/01/13 07:57:27;;;;;;;21.40;13.23;;;;;;;-2.03;51.24;95316.63;5029885;28;20234;-71
2024/01/13 07:59:53;;;;;;;18.10;12.20;;;;;;;-1.79;51.00;95320.69;5028614;28;20234;-77
2024/01/13 08:02:18;;;;;;;20.77;12.73;;;;;;;-1.74;50.38;95317.88;5030250;28;20192;-74
2024/01/13 08:04:44;;;;;;;17.70;11.53;;;;;;;-1.79;50.79;95331.00;5030431;28;20194;-74
2024/01/13 08:07:09;;;;;;;17.57;12.00;;;;;;;-1.77;50.93;95318.00;5028950;28;20226;-73
2024/01/13 08:09:34;;;;;;;19.70;12.20;;;;;;;-1.68;50.81;95322.75;5028491;28;20250;-73
2024/01/13 08:12:00;;;;;;;18.80;11.73;;;;;;;-1.69;50.63;95317.66;5030205;28;20252;-72
2024/01/13 08:14:25;;;;;;;16.90;12.30;;;;;;;-1.81;50.86;95312.16;5046811;28;20182;-74
2024/01/13 08:16:51;;;;;;;18.77;12.40;;;;;;;-1.93;51.13;95317.03;5030382;28;20186;-76
2024/01/13 08:19:16;;;;;;;16.60;11.27;;;;;;;-1.77;50.72;95311.09;5047100;28;20257;-74
2024/01/13 08:21:41;;;;;;;18.53;10.80;;;;;;;-1.49;50.17;95311.59;5029738;28;20321;-72
2024/01/13 08:24:11;;;;;;;17.33;11.33;;;;;;;-1.41;50.19;95310.31;5030176;28;20236;-74
2024/01/13 08:26:38;;;;;;;17.53;11.53;;;;;;;-1.22;49.46;95304.28;5029720;28;20309;-73
2024/01/13 08:29:03;;;;;;;18.43;11.63;;;;;;;-1.12;49.07;95305.53;5026996;28;20224;-72
2024/01/13 08:31:29;;;;;;;18.33;11.27;;;;;;;-1.29;49.54;95308.06;5045784;28;20253;-73
2024/01/13 08:33:54;;;;;;;15.07;10.57;;;;;;;-1.12;48.79;95310.69;5044034;28;20253;-72
2024/01/13 08:36:20;;;;;;;15.77;10.70;;;;;;;-1.41;49.51;95307.75;5029918;28;20225;-72
2024/01/13 08:38:45;;;;;;;17.03;11.20;;;;;;;-1.25;49.08;95302.69;5045826;28;20241;-71
2024/01/13 08:41:11;;;;;;;16.73;10.63;;;;;;;-1.12;48.92;95306.34;5029433;28;20189;-74
2024/01/13 08:43:37;;;;;;;16.80;10.10;;;;;;;-1.19;48.95;95298.97;5029805;28;20185;-76
2024/01/13 08:46:02;;;;;;;15.27;10.27;;;;;;;-1.04;48.77;95310.28;5025147;28;20222;-74
2024/01/13 08:48:28;;;;;;;14.40;10.13;;;;;;;-1.19;48.09;95320.44;5029405;28;20222;-73
2024/01/13 08:50:53;;;;;;;13.20;8.93;;;;;;;-1.36;48.56;95287.72;5045355;28;20218;-72
2024/01/13 08:53:19;;;;;;;13.13;9.50;;;;;;;-1.44;48.77;95289.84;5029267;28;20240;-71
2024/01/13 08:55:44;;;;;;;12.30;9.17;;;;;;;-1.42;48.93;95292.31;5045697;28;20201;-72
2024/01/13 08:58:10;;;;;;;12.53;9.03;;;;;;;-1.35;48.84;95280.81;5044025;28;20221;-72
2024/01/13 09:00:35;;;;;;;12.73;8.67;;;;;;;-1.30;48.26;95262.56;5035127;28;20230;-74
2024/01/13 09:03:01;;;;;;;12.47;8.17;;;;;;;-1.19;48.07;95263.69;5026942;28;20237;-72
2024/01/13 09:05:27;;;;;;;13.00;8.27;;;;;;;-0.95;47.90;95255.66;5011022;28;20209;-73
2024/01/13 09:07:54;;;;;;;11.53;8.00;;;;;;;-0.81;47.45;95254.94;5025395;28;20201;-73
2024/01/13 09:10:20;;;;;;;12.13;8.60;;;;;;;-0.76;47.01;95256.38;5045611;28;20236;-72
2024/01/13 09:12:45;;;;;;;11.50;8.43;;;;;;;-0.53;46.37;95244.06;5029241;28;20242;-73
2024/01/13 09:15:12;;;;;;;12.20;8.20;;;;;;;-0.38;46.74;95250.16;5024027;28;20226;-71
2024/01/13 09:17:38;;;;;;;13.87;8.70;;;;;;;-0.66;46.24;95251.59;5045525;28;20221;-72
2024/01/13 09:20:04;;;;;;;11.03;8.37;;;;;;;-0.77;46.71;95231.50;5028396;28;20202;-72
2024/01/13 09:22:29;;;;;;;12.97;8.47;;;;;;;-0.54;46.42;95232.88;5029452;28;20222;-72
2024/01/13 09:24:55;;;;;;;13.00;8.63;;;;;;;-0.29;46.23;95236.78;5046304;28;20255;-72
2024/01/13 09:27:20;;;;;;;10.00;7.67;;;;;;;-0.05;46.14;95227.72;5031337;28;20241;-72
2024/01/13 09:29:46;;;;;;;11.00;8.47;;;;;;;-0.25;45.69;95221.00;5031896;28;20219;-71
2024/01/13 09:32:12;;;;;;;13.70;9.17;;;;;;;-0.35;46.40;95240.50;5033158;28;20193;-71
2024/01/13 09:34:38;;;;;;;11.77;8.60;;;;;;;-0.27;46.13;95214.25;5046991;28;20186;-72
2024/01/13 09:37:03;;;;;;;12.73;8.47;;;;;;;0.06;45.54;95224.56;5049398;28;20533;-72
2024/01/13 09:39:29;;;;;;;12.00;8.50;;;;;;;-0.29;46.09;95210.94;5032510;28;20232;-71
2024/01/13 09:41:55;;;;;;;11.43;8.50;;;;;;;-0.46;45.84;95233.31;5049671;28;20316;-72
2024/01/13 09:44:22;;;;;;;9.67;7.37;;;;;;;-0.43;46.25;95210.81;5032822;28;20209;-74
2024/01/13 09:46:51;;;;;;;14.17;8.10;;;;;;;-0.26;45.36;95213.38;5049678;28;20277;-75
2024/01/13 09:49:18;;;;;;;11.23;8.10;;;;;;;-0.29;45.46;95211.78;5048533;28;20222;-75
2024/01/13 09:51:44;;;;;;;10.83;8.10;;;;;;;0.05;44.84;95193.59;5031515;28;20241;-73
2024/01/13 09:54:24;;;;;;;13.17;8.00;;;;;;;0.22;44.34;95202.09;5032876;28;20228;-71
2024/01/13 09:56:50;;;;;;;13.37;9.23;;;;;;;0.14;44.44;95188.78;5030672;28;20233;-72
2024/01/13 09:59:16;;;;;;;10.00;8.20;;;;;;;0.07;44.32;95187.44;5030503;28;20256;-73
2024/01/13 10:01:42;;;;;;;11.07;8.07;;;;;;;-0.05;44.54;95190.69;5049963;28;20194;-77
2024/01/13 10:04:08;;;;;;;11.50;8.30;;;;;;;0.03;44.77;95174.75;5049462;28;20233;-76
2024/01/13 10:06:35;;;;;;;11.83;8.43;;;;;;;0.03;44.79;95192.84;5032880;28;20675;-76
2024/01/13 10:09:02;;;;;;;10.60;8.67;;;;;;;-0.06;45.40;95176.91;5033216;28;20222;-75
2024/01/13 10:11:28;;;;;;;10.87;7.73;;;;;;;0.03;45.13;95173.03;5033101;28;20182;-74
2024/01/13 10:14:05;;;;;;;10.70;8.70;;;;;;;0.08;45.10;95165.00;5032876;28;20206;-77
2024/01/13 10:16:34;;;;;;;12.17;8.13;;;;;;;0.32;44.40;95163.66;5043970;28;20241;-73
2024/01/13 10:19:05;;;;;;;12.13;8.73;;;;;;;0.35;44.54;95136.78;5047929;28;20218;-73
2024/01/13 10:21:31;;;;;;;12.20;8.83;;;;;;;0.39;44.13;95143.44;5049844;28;20253;-77
2024/01/13 10:23:59;;;;;;;12.07;8.90;;;;;;;0.38;44.30;95141.78;5038357;28;20228;-77
2024/01/13 10:26:25;;;;;;;12.67;7.60;;;;;;;0.60;44.38;95133.59;5049563;28;20177;-77
2024/01/13 10:28:51;;;;;;;9.57;7.37;;;;;;;0.94;44.07;95129.06;5034119;28;20178;-79
2024/01/13 10:31:18;;;;;;;12.03;8.80;;;;;;;1.15;43.37;95140.72;5034781;28;20253;-75
2024/01/13 10:33:48;;;;;;;11.07;8.37;;;;;;;1.20;43.07;95136.06;5048802;28;20256;-78
2024/01/13 10:36:15;;;;;;;13.27;8.70;;;;;;;1.45;42.52;95126.84;5031718;28;20294;-75
2024/01/13 10:38:42;;;;;;;11.70;9.00;;;;;;;1.74;41.97;95119.84;5047757;28;20321;-74
2024/01/13 10:41:09;;;;;;;11.87;9.53;;;;;;;1.59;41.82;95132.00;5033326;28;20256;-79
2024/01/13 10:43:40;;;;;;;12.13;8.67;;;;;;;1.41;42.56;95130.53;5029049;28;20234;-76
2024/01/13 10:46:11;;;;;;;12.00;9.10;;;;;;;1.73;42.45;95121.59;5032159;28;20315;-74
2024/01/13 10:48:45;;;;;;;13.57;9.93;;;;;;;2.01;42.01;95121.66;5032063;28;20359;-75
2024/01/13 10:51:33;;;;;;;12.27;8.03;;;;;;;1.96;41.91;95116.75;5047473;28;20283;-74
2024/01/13 10:54:01;;;;;;;12.43;8.70;;;;;;;1.86;42.23;95120.84;5045699;28;20225;-75
2024/01/13 10:56:30;;;;;;;12.23;9.47;;;;;;;1.93;42.79;95125.53;5028998;28;20229;-76
2024/01/13 10:58:58;;;;;;;11.43;8.70;;;;;;;2.13;42.31;95113.88;5031187;28;20217;-77
2024/01/13 11:01:24;;;;;;;11.27;8.63;;;;;;;2.11;41.74;95118.38;5022121;28;20227;-77
2024/01/13 11:03:51;;;;;;;12.60;8.67;;;;;;;2.45;41.63;95121.38;5031275;28;20222;-71
2024/01/13 11:06:17;;;;;;;12.73;8.70;;;;;;;2.09;41.85;95115.03;5032181;28;20230;-75
2024/01/13 11:08:44;;;;;;;12.63;9.37;;;;;;;2.50;40.82;95123.66;5031605;28;20237;-72
2024/01/13 11:11:12;;;;;;;12.93;9.77;;;;;;;2.50;40.50;95115.88;5032712;28;20189;-79
2024/01/13 11:13:44;;;;;;;14.90;8.90;;;;;;;2.69;40.68;95118.09;5032934;28;20311;-75